Time;durP1;ratioP1;P1;durP2;ratioP2;P2;SDS_P1;SDS_P2;PMS_P1;PMS_P2;Temp;Humidity;BMP_temperature;BMP_pressure;BME280_temperature;BME280_humidity;BME280_pressure;Samples;Min_cycle;Max_cycle;Signal;HPM_P1;HPM_P2
2023/03/03 00:01:33;;;;;;;81.32;12.10;;;1.60;99.90;;;;;;5048240;28;22097;-77
2023/03/03 00:03:59;;;;;;;44.50;11.57;;;1.50;99.90;;;;;;5049109;28;20466;-76
2023/03/03 00:06:25;;;;;;;105.30;11.85;;;1.40;99.90;;;;;;5048892;28;20046;-77
2023/03/03 00:08:52;;;;;;;38.67;10.32;;;2.20;99.90;;;;;;5030202;28;20154;-76
2023/03/03 00:11:18;;;;;;;19.05;10.27;;;1.40;99.90;;;;;;5044374;28;20044;-77
2023/03/03 00:14:16;;;;;;;51.35;10.25;;;1.30;99.90;;;;;;5041165;28;20048;-76
2023/03/03 00:16:42;;;;;;;75.35;10.70;;;1.30;99.90;;;;;;5046152;28;20135;-76
2023/03/03 00:19:17;;;;;;;41.28;8.95;;;1.30;99.90;;;;;;5053587;28;20733;-77
2023/03/03 00:21:51;;;;;;;40.50;8.65;;;1.20;99.90;;;;;;5045307;28;20139;-76
2023/03/03 00:24:43;;;;;;;25.65;8.57;;;1.20;99.90;;;;;;5049410;28;20072;-76
2023/03/03 00:27:27;;;;;;;15.10;7.90;;;1.30;99.90;;;;;;5060844;28;20056;-77
2023/03/03 00:29:56;;;;;;;26.95;9.02;;;1.10;99.90;;;;;;5066928;28;20094;-76
2023/03/03 00:32:54;;;;;;;25.13;9.15;;;1.10;99.90;;;;;;5049949;28;20044;-76
2023/03/03 00:35:29;;;;;;;16.90;9.07;;;1.10;99.90;;;;;;5058348;28;20044;-77
2023/03/03 00:38:00;;;;;;;26.15;8.35;;;1.10;99.90;;;;;;5033005;28;20053;-77
2023/03/03 00:40:36;;;;;;;16.60;9.20;;;1.10;99.90;;;;;;5056892;28;20131;-77
2023/03/03 00:43:17;;;;;;;30.05;10.13;;;1.30;99.90;;;;;;5064120;28;20039;-77
2023/03/03 00:45:52;;;;;;;27.88;10.98;;;1.10;99.90;;;;;;5055936;28;20115;-76
2023/03/03 00:48:25;;;;;;;45.58;10.88;;;1.10;99.90;;;;;;5048924;28;20136;-77
2023/03/03 00:50:59;;;;;;;16.45;9.38;;;1.00;99.90;;;;;;5055729;28;20406;-77
2023/03/03 00:53:28;;;;;;;36.88;10.00;;;1.00;99.90;;;;;;5046520;28;20040;-77
2023/03/03 00:55:54;;;;;;;73.35;9.50;;;1.10;99.90;;;;;;5051906;28;20637;-77
2023/03/03 00:58:21;;;;;;;27.70;9.00;;;1.00;99.90;;;;;;5046020;28;20102;-77
2023/03/03 01:00:52;;;;;;;67.60;11.63;;;0.90;99.90;;;;;;5034896;28;20555;-77
2023/03/03 01:03:23;;;;;;;27.00;7.88;;;0.80;99.90;;;;;;5049844;28;20044;-76
2023/03/03 01:05:50;;;;;;;24.23;8.05;;;1.30;99.90;;;;;;5076898;28;20113;-77
2023/03/03 01:08:18;;;;;;;14.98;7.68;;;0.70;99.90;;;;;;5077825;28;20087;-77
2023/03/03 01:10:56;;;;;;;14.85;7.70;;;0.60;99.90;;;;;;5065852;28;20394;-76
2023/03/03 01:13:29;;;;;;;19.13;7.60;;;0.70;99.90;;;;;;5065398;28;20366;-76
2023/03/03 01:15:55;;;;;;;22.95;7.50;;;0.60;99.90;;;;;;5047298;28;20436;-77
2023/03/03 01:18:20;;;;;;;13.93;7.28;;;0.60;99.90;;;;;;5058280;28;20040;-77
2023/03/03 01:20:46;;;;;;;35.47;7.28;;;0.50;99.90;;;;;;5065302;28;20127;-77
2023/03/03 01:23:12;;;;;;;28.75;8.25;;;0.40;99.90;;;;;;5065069;28;20046;-77
2023/03/03 01:25:38;;;;;;;15.68;8.23;;;0.40;99.90;;;;;;5068098;28;20127;-77
2023/03/03 01:28:05;;;;;;;24.92;7.68;;;0.40;99.90;;;;;;5072461;28;20123;-77
2023/03/03 01:30:31;;;;;;;17.50;7.93;;;0.30;99.90;;;;;;5052026;28;20081;-77
2023/03/03 01:32:57;;;;;;;14.77;8.13;;;1.30;99.90;;;;;;5071196;28;20133;-77
2023/03/03 01:35:23;;;;;;;20.30;8.00;;;0.30;99.90;;;;;;5061832;28;20036;-77
2023/03/03 01:37:49;;;;;;;15.35;8.32;;;0.40;99.90;;;;;;5075379;28;20051;-77
2023/03/03 01:40:23;;;;;;;17.33;7.95;;;0.30;99.90;;;;;;5078967;28;20044;-77
2023/03/03 01:42:48;;;;;;;14.63;7.97;;;0.30;99.90;;;;;;5049454;28;20083;-76
2023/03/03 01:45:17;;;;;;;15.38;8.00;;;0.20;99.90;;;;;;5059933;28;20043;-76
2023/03/03 01:48:03;;;;;;;13.10;7.40;;;0.20;99.90;;;;;;5033198;28;20048;-76
2023/03/03 01:51:02;;;;;;;14.10;7.43;;;0.20;99.90;;;;;;5039129;28;20045;-76
2023/03/03 01:53:44;;;;;;;12.77;7.25;;;0.20;99.90;;;;;;5040320;28;20044;-76
2023/03/03 01:56:10;;;;;;;19.13;7.80;;;0.20;99.90;;;;;;5045170;28;20033;-76
2023/03/03 01:58:44;;;;;;;15.30;7.80;;;0.20;99.90;;;;;;5061442;28;20048;-76
2023/03/03 02:01:26;;;;;;;14.32;7.68;;;0.20;99.90;;;;;;5047367;28;20417;-76
2023/03/03 02:03:52;;;;;;;17.48;9.05;;;0.20;99.90;;;;;;5052633;28;20047;-76
2023/03/03 02:06:22;;;;;;;17.98;9.20;;;0.20;99.90;;;;;;5052638;28;20505;-76
2023/03/03 02:08:58;;;;;;;15.63;8.48;;;0.20;99.90;;;;;;5065142;28;20044;-76
2023/03/03 02:11:25;;;;;;;16.58;8.75;;;0.10;99.90;;;;;;5074759;28;20074;-76
2023/03/03 02:13:51;;;;;;;16.42;8.50;;;0.10;99.90;;;;;;5074171;28;20032;-76
2023/03/03 02:16:17;;;;;;;15.90;8.65;;;0.60;99.90;;;;;;5045752;28;20106;-76
2023/03/03 02:18:43;;;;;;;19.58;8.60;;;0.20;99.90;;;;;;5074404;28;20604;-77
2023/03/03 02:21:11;;;;;;;19.30;8.38;;;0.10;99.90;;;;;;5068931;28;20045;-76
2023/03/03 02:23:55;;;;;;;15.32;8.32;;;0.10;99.90;;;;;;5066092;28;20071;-76
2023/03/03 02:26:30;;;;;;;20.02;10.18;;;0.10;99.90;;;;;;5049046;28;20418;-76
2023/03/03 02:28:55;;;;;;;29.65;10.30;;;0.10;99.90;;;;;;5042663;28;20214;-77
2023/03/03 02:31:24;;;;;;;23.80;11.35;;;0.00;99.90;;;;;;5047598;28;20246;-76
2023/03/03 02:33:51;;;;;;;23.35;10.50;;;0.00;99.90;;;;;;5048148;28;20041;-76
2023/03/03 02:36:20;;;;;;;19.50;9.68;;;0.00;99.90;;;;;;5073681;28;20090;-76
2023/03/03 02:38:58;;;;;;;20.65;9.40;;;-0.10;99.90;;;;;;5057916;28;20160;-75
2023/03/03 02:41:45;;;;;;;19.75;8.63;;;-0.10;99.90;;;;;;5069048;28;20374;-77
2023/03/03 02:44:17;;;;;;;17.75;8.73;;;-0.10;99.90;;;;;;5048000;28;20041;-77
2023/03/03 02:46:46;;;;;;;17.48;9.13;;;-0.10;99.90;;;;;;5031862;28;20436;-76
2023/03/03 02:49:14;;;;;;;16.95;8.43;;;-0.10;99.90;;;;;;5050955;28;20066;-77
2023/03/03 02:51:40;;;;;;;15.93;8.23;;;0.20;99.90;;;;;;5054160;28;20538;-76
2023/03/03 02:54:08;;;;;;;15.40;7.72;;;-0.20;99.90;;;;;;5058063;28;20044;-75
2023/03/03 02:56:34;;;;;;;14.55;7.95;;;0.10;99.90;;;;;;5052274;28;20123;-77
2023/03/03 02:59:00;;;;;;;14.07;7.72;;;-0.20;99.90;;;;;;5047011;28;20048;-75
2023/03/03 03:01:26;;;;;;;13.02;6.97;;;-0.20;99.90;;;;;;5050808;28;20111;-76
2023/03/03 03:03:52;;;;;;;13.50;7.22;;;-0.20;99.90;;;;;;5042986;28;20148;-76
2023/03/03 03:06:18;;;;;;;14.43;7.22;;;-0.20;99.90;;;;;;5044458;28;20143;-77
2023/03/03 03:08:44;;;;;;;12.80;6.65;;;-0.20;99.90;;;;;;5066863;28;20036;-76
2023/03/03 03:11:10;;;;;;;12.15;6.65;;;-0.20;99.90;;;;;;5067939;28;20043;-76
2023/03/03 03:13:35;;;;;;;12.55;7.13;;;-0.20;99.90;;;;;;5046249;28;20047;-76
2023/03/03 03:16:04;;;;;;;12.45;7.13;;;-0.20;99.90;;;;;;5050672;28;20139;-76
2023/03/03 03:18:29;;;;;;;11.48;6.40;;;-0.20;99.90;;;;;;5031278;28;20048;-76
2023/03/03 03:20:55;;;;;;;10.80;5.80;;;-0.20;99.90;;;;;;5044542;28;20050;-76
2023/03/03 03:23:21;;;;;;;12.82;7.07;;;-0.30;99.90;;;;;;5048666;28;20894;-76
2023/03/03 03:25:47;;;;;;;11.95;6.68;;;-0.20;99.90;;;;;;5057104;28;20056;-75
2023/03/03 03:28:15;;;;;;;14.20;7.22;;;0.00;99.90;;;;;;5066436;28;20045;-76
2023/03/03 03:30:43;;;;;;;12.05;6.18;;;0.00;99.90;;;;;;5032485;28;20494;-77
2023/03/03 03:33:09;;;;;;;11.75;6.53;;;-0.20;99.90;;;;;;5064802;28;20036;-77
2023/03/03 03:35:35;;;;;;;12.70;6.80;;;-0.30;99.90;;;;;;5077232;28;20135;-77
2023/03/03 03:38:02;;;;;;;13.40;6.90;;;0.50;99.90;;;;;;5063919;28;20766;-76
2023/03/03 03:40:28;;;;;;;11.55;5.88;;;-0.30;99.90;;;;;;5055882;28;20044;-76
2023/03/03 03:42:54;;;;;;;11.23;6.10;;;-0.30;99.90;;;;;;5067006;28;20102;-74
2023/03/03 03:45:20;;;;;;;12.77;6.88;;;0.40;99.90;;;;;;5048927;28;20043;-76
2023/03/03 03:47:46;;;;;;;11.73;6.80;;;-0.40;99.90;;;;;;5067948;28;20040;-76
2023/03/03 03:50:12;;;;;;;11.43;6.68;;;-0.40;99.90;;;;;;5054270;28;20518;-76
2023/03/03 03:52:38;;;;;;;10.63;5.75;;;-0.40;99.90;;;;;;5064236;28;20037;-76
2023/03/03 03:55:04;;;;;;;11.73;6.40;;;-0.40;99.90;;;;;;5052784;28;20048;-76
2023/03/03 03:57:30;;;;;;;11.40;6.25;;;-0.40;99.90;;;;;;5045427;28;20860;-76
2023/03/03 03:59:56;;;;;;;10.48;6.15;;;-0.40;99.90;;;;;;5050878;28;20036;-76
2023/03/03 04:02:22;;;;;;;10.95;6.13;;;-0.40;99.90;;;;;;5055002;28;20733;-75
2023/03/03 04:04:47;;;;;;;12.13;5.80;;;-0.50;99.90;;;;;;5059158;28;20068;-76
2023/03/03 04:07:13;;;;;;;10.57;6.28;;;0.10;99.90;;;;;;5048716;28;20131;-75
2023/03/03 04:09:42;;;;;;;11.85;6.07;;;-0.50;99.90;;;;;;5049836;28;20044;-75
2023/03/03 04:12:08;;;;;;;11.70;5.90;;;-0.60;99.90;;;;;;5045736;28;20070;-75
2023/03/03 04:14:33;;;;;;;12.90;6.32;;;-0.60;99.90;;;;;;5069150;28;20032;-75
2023/03/03 04:16:59;;;;;;;11.60;6.47;;;-0.60;99.90;;;;;;5054332;28;20448;-75
2023/03/03 04:19:25;;;;;;;12.32;6.28;;;-0.60;99.90;;;;;;5048329;28;20040;-76
2023/03/03 04:21:51;;;;;;;10.98;6.22;;;-0.60;99.90;;;;;;5053155;28;20045;-76
2023/03/03 04:24:18;;;;;;;12.52;6.43;;;-0.70;99.90;;;;;;5055119;28;20044;-75
2023/03/03 04:26:44;;;;;;;12.30;5.88;;;-0.10;99.90;;;;;;5047535;28;20178;-72
2023/03/03 04:29:10;;;;;;;12.38;6.57;;;-0.70;99.90;;;;;;5046606;28;20037;-72
2023/03/03 04:31:35;;;;;;;10.73;6.03;;;-0.60;99.90;;;;;;5054658;28;20044;-72
2023/03/03 04:34:01;;;;;;;13.32;6.45;;;-0.70;99.90;;;;;;5067997;28;20099;-72
2023/03/03 04:36:27;;;;;;;10.98;5.93;;;-0.70;99.90;;;;;;5031523;28;20040;-72
2023/03/03 04:38:53;;;;;;;12.43;6.28;;;-0.30;99.90;;;;;;5064322;28;20409;-72
2023/03/03 04:41:18;;;;;;;11.90;6.35;;;-0.80;99.90;;;;;;5029467;28;20039;-72
2023/03/03 04:43:44;;;;;;;14.70;6.72;;;0.30;99.90;;;;;;5066392;28;20043;-72
2023/03/03 04:46:10;;;;;;;13.65;6.25;;;-0.80;99.90;;;;;;5046962;28;20028;-72
2023/03/03 04:48:37;;;;;;;11.85;6.88;;;-0.80;99.90;;;;;;5044597;28;20048;-72
2023/03/03 04:51:03;;;;;;;13.18;7.25;;;-0.80;99.90;;;;;;5048658;28;20095;-72
2023/03/03 04:53:28;;;;;;;13.65;6.70;;;-0.90;99.90;;;;;;5064118;28;20056;-72
2023/03/03 04:55:55;;;;;;;13.23;7.18;;;-0.80;99.90;;;;;;5062715;28;20049;-72
2023/03/03 04:58:21;;;;;;;11.90;7.10;;;-0.90;99.90;;;;;;5065291;28;20040;-72
2023/03/03 05:00:53;;;;;;;12.82;6.43;;;-0.90;99.90;;;;;;5055575;28;20051;-72
2023/03/03 05:03:19;;;;;;;13.50;6.65;;;-0.90;99.90;;;;;;5049657;28;20127;-72
2023/03/03 05:05:46;;;;;;;14.10;6.97;;;-0.50;99.90;;;;;;5055724;28;20194;-72
2023/03/03 05:08:13;;;;;;;12.75;6.95;;;-0.90;99.90;;;;;;5070504;28;20152;-72
2023/03/03 05:10:39;;;;;;;14.68;7.18;;;-0.90;99.90;;;;;;5052920;28;20041;-72
2023/03/03 05:13:05;;;;;;;11.18;6.65;;;0.10;99.90;;;;;;5063374;28;20049;-72
2023/03/03 05:15:34;;;;;;;13.05;6.78;;;-1.00;99.90;;;;;;5046937;28;20044;-72
2023/03/03 05:18:00;;;;;;;12.27;6.93;;;-1.00;99.90;;;;;;5051751;28;20067;-72
2023/03/03 05:20:26;;;;;;;12.57;6.97;;;-1.00;99.90;;;;;;5029243;28;20037;-72
2023/03/03 05:22:52;;;;;;;11.73;6.45;;;-1.10;99.90;;;;;;5070456;28;20478;-71
2023/03/03 05:25:21;;;;;;;13.82;6.75;;;-1.10;99.90;;;;;;5045885;28;20041;-72
2023/03/03 05:27:46;;;;;;;12.57;6.82;;;-1.10;99.90;;;;;;5055217;28;20051;-72
2023/03/03 05:30:12;;;;;;;12.95;7.32;;;-1.10;99.90;;;;;;5064046;28;20496;-72
2023/03/03 05:32:38;;;;;;;12.60;7.10;;;-1.10;99.90;;;;;;5053045;28;20076;-73
2023/03/03 05:35:05;;;;;;;13.70;7.50;;;-1.10;99.90;;;;;;5062461;28;20037;-72
2023/03/03 05:37:30;;;;;;;13.15;7.57;;;-1.20;99.90;;;;;;5073085;28;20468;-72
2023/03/03 05:39:56;;;;;;;14.35;7.80;;;-1.00;99.90;;;;;;5050114;28;20078;-72
2023/03/03 05:42:22;;;;;;;14.55;7.70;;;-1.20;99.90;;;;;;5046315;28;20048;-72
2023/03/03 05:44:47;;;;;;;14.23;8.10;;;-1.20;99.90;;;;;;5063325;28;20063;-72
2023/03/03 05:47:13;;;;;;;13.77;7.90;;;-1.20;99.90;;;;;;5043840;28;20529;-71
2023/03/03 05:49:39;;;;;;;14.57;7.57;;;-0.50;99.90;;;;;;5065629;28;20086;-71
2023/03/03 05:52:05;;;;;;;12.85;7.15;;;-1.20;99.90;;;;;;5045516;28;20488;-72
2023/03/03 05:54:31;;;;;;;14.07;7.30;;;-1.20;99.90;;;;;;5064176;28;20040;-72
2023/03/03 05:56:56;;;;;;;14.18;7.30;;;-1.30;99.90;;;;;;5049944;28;20398;-72
2023/03/03 05:59:23;;;;;;;14.77;8.38;;;-1.30;99.90;;;;;;5027177;28;20075;-72
2023/03/03 06:01:49;;;;;;;12.93;7.57;;;-0.80;99.90;;;;;;5039162;28;20045;-72
2023/03/03 06:04:15;;;;;;;15.15;7.70;;;-1.30;99.90;;;;;;5060005;28;20041;-72
2023/03/03 06:06:40;;;;;;;14.27;7.18;;;-1.30;99.90;;;;;;5065873;28;20098;-72
2023/03/03 06:09:06;;;;;;;13.25;7.47;;;-0.70;99.90;;;;;;5044176;28;20114;-71
2023/03/03 06:11:32;;;;;;;14.45;7.70;;;-1.30;99.90;;;;;;5044761;28;20076;-71
2023/03/03 06:13:58;;;;;;;12.80;7.25;;;-1.40;99.90;;;;;;5043850;28;20076;-71
2023/03/03 06:16:23;;;;;;;14.38;7.25;;;-1.40;99.90;;;;;;5066179;28;20036;-71
2023/03/03 06:18:49;;;;;;;14.23;7.88;;;-1.10;99.90;;;;;;5070320;28;20045;-72
2023/03/03 06:21:15;;;;;;;13.38;7.30;;;-1.40;99.90;;;;;;5068639;28;20397;-72
2023/03/03 06:23:40;;;;;;;15.95;7.55;;;-1.40;99.90;;;;;;5061692;28;20115;-72
2023/03/03 06:26:06;;;;;;;14.55;7.40;;;-1.40;99.90;;;;;;5065039;28;20131;-73
2023/03/03 06:28:32;;;;;;;13.95;7.63;;;-0.60;99.90;;;;;;5045110;28;20047;-71
2023/03/03 06:30:58;;;;;;;15.88;8.07;;;-1.20;99.90;;;;;;5036607;28;20052;-73
2023/03/03 06:33:24;;;;;;;13.80;7.43;;;-1.00;99.90;;;;;;5039174;28;20106;-72
2023/03/03 06:35:51;;;;;;;13.38;7.50;;;-1.20;99.90;;;;;;5053630;28;20079;-73
2023/03/03 06:38:17;;;;;;;17.20;6.75;;;-1.20;99.90;;;;;;5071742;28;20036;-73
2023/03/03 06:40:45;;;;;;;13.05;7.40;;;-1.50;99.90;;;;;;5023563;28;20044;-72
2023/03/03 06:43:11;;;;;;;12.73;6.72;;;-1.50;99.90;;;;;;5043680;28;20106;-71
2023/03/03 06:45:36;;;;;;;13.43;7.53;;;-1.50;99.90;;;;;;5064667;28;20107;-72
2023/03/03 06:48:03;;;;;;;12.60;7.45;;;-1.50;99.90;;;;;;5056372;28;20064;-72
2023/03/03 06:50:28;;;;;;;16.02;7.85;;;-1.50;99.90;;;;;;5050402;28;20512;-72
2023/03/03 06:53:20;;;;;;;13.90;7.53;;;-1.50;99.90;;;;;;5056977;28;20115;-72
2023/03/03 06:55:46;;;;;;;;;;;-1.30;99.90;;;;;;5052797;28;20057;-73
2023/03/03 06:58:14;;;;;;;13.20;7.25;;;-1.50;99.90;;;;;;5044864;28;20042;-76
2023/03/03 07:00:42;;;;;;;12.88;7.40;;;-1.50;99.90;;;;;;5050311;28;20464;-76
2023/03/03 07:03:17;;;;;;;13.68;7.53;;;-1.40;99.90;;;;;;5041118;28;20461;-76
2023/03/03 07:05:44;;;;;;;14.55;7.70;;;-1.40;99.90;;;;;;5036609;28;20055;-75
2023/03/03 07:08:16;;;;;;;15.55;7.00;;;-0.80;99.90;;;;;;5036946;28;20082;-76
2023/03/03 07:10:42;;;;;;;;;;;-1.40;99.90;;;;;;5036860;28;20473;-76
2023/03/03 07:13:20;;;;;;;14.82;7.90;;;-1.40;99.90;;;;;;5026529;28;20880;-76
2023/03/03 07:15:48;;;;;;;15.75;7.95;;;-1.40;99.90;;;;;;5059201;28;20036;-77
2023/03/03 07:18:36;;;;;;;17.35;8.73;;;-1.30;99.90;;;;;;5051509;28;20726;-76
2023/03/03 07:21:15;;;;;;;13.73;7.53;;;-1.20;99.90;;;;;;5063601;28;20459;-77
2023/03/03 07:23:41;;;;;;;13.60;7.38;;;-1.20;99.90;;;;;;5039584;28;20044;-77
2023/03/03 07:26:33;;;;;;;17.23;7.70;;;-0.30;99.90;;;;;;5062396;28;20127;-77
2023/03/03 07:29:23;;;;;;;15.95;7.85;;;-0.20;99.90;;;;;;5044822;28;20052;-77
2023/03/03 07:31:50;;;;;;;15.23;8.27;;;-0.90;99.90;;;;;;5034992;28;20047;-77
2023/03/03 07:34:22;;;;;;;13.77;6.90;;;-0.80;99.90;;;;;;5037455;28;20044;-77
2023/03/03 07:36:52;;;;;;;12.15;6.57;;;-0.70;99.90;;;;;;5031805;28;20045;-77
2023/03/03 07:39:36;;;;;;;11.93;6.93;;;-0.70;99.90;;;;;;5040428;28;21186;-77
2023/03/03 07:42:08;;;;;;;13.57;7.00;;;-0.70;99.90;;;;;;5044492;28;20048;-77
2023/03/03 07:44:35;;;;;;;12.85;7.25;;;-0.60;99.90;;;;;;5032669;28;20098;-78
2023/03/03 07:47:21;;;;;;;12.77;7.57;;;-0.60;99.90;;;;;;5036418;28;20044;-77
2023/03/03 07:49:49;;;;;;;13.70;8.07;;;-0.60;99.90;;;;;;5046257;28;20040;-77
2023/03/03 07:52:26;;;;;;;13.25;7.28;;;-0.60;99.90;;;;;;5034037;28;20051;-78
2023/03/03 07:54:54;;;;;;;13.60;7.55;;;-0.50;99.90;;;;;;5050339;28;20048;-78
2023/03/03 07:57:33;;;;;;;13.10;7.35;;;0.50;99.90;;;;;;5027900;28;20102;-77
2023/03/03 08:00:17;;;;;;;15.75;8.05;;;-0.50;99.90;;;;;;5056480;28;20528;-77
2023/03/03 08:02:50;;;;;;;18.90;8.75;;;-0.50;99.90;;;;;;5042672;28;20047;-77
2023/03/03 08:05:27;;;;;;;17.63;8.93;;;-0.40;99.90;;;;;;5052686;28;20048;-77
2023/03/03 08:07:56;;;;;;;20.73;10.10;;;-0.40;99.90;;;;;;5049849;28;20131;-77
2023/03/03 08:10:52;;;;;;;22.90;11.15;;;-0.30;99.90;;;;;;5054700;28;20054;-77
2023/03/03 08:13:27;;;;;;;24.63;9.90;;;-0.30;99.90;;;;;;5010110;28;20060;-78
2023/03/03 08:16:08;;;;;;;20.85;10.25;;;-0.30;99.90;;;;;;5032720;28;20040;-78
2023/03/03 08:18:41;;;;;;;21.55;9.98;;;-0.20;99.90;;;;;;5055806;28;20033;-77
2023/03/03 08:21:06;;;;;;;19.25;9.40;;;-0.20;99.90;;;;;;5051221;28;20045;-77
2023/03/03 08:23:32;;;;;;;20.45;9.63;;;0.10;99.90;;;;;;5045324;28;20049;-76
2023/03/03 08:25:58;;;;;;;21.08;9.60;;;-0.20;99.90;;;;;;5056723;28;20144;-76
2023/03/03 08:28:24;;;;;;;17.80;8.30;;;-0.20;99.90;;;;;;5058788;28;20067;-76
2023/03/03 08:30:50;;;;;;;20.55;7.93;;;-0.10;99.90;;;;;;5046096;28;20033;-76
2023/03/03 08:33:17;;;;;;;16.67;7.85;;;-0.10;99.90;;;;;;5039540;28;20075;-76
2023/03/03 08:35:43;;;;;;;16.67;7.72;;;-0.10;99.90;;;;;;5050908;28;20067;-78
2023/03/03 08:38:10;;;;;;;14.38;6.68;;;-0.10;99.90;;;;;;5038983;28;20094;-77
2023/03/03 08:40:36;;;;;;;17.77;8.18;;;0.00;99.90;;;;;;5020422;28;20083;-77
2023/03/03 08:43:02;;;;;;;14.60;7.30;;;0.00;99.90;;;;;;5034170;28;20072;-79
2023/03/03 08:45:28;;;;;;;16.02;7.95;;;0.00;99.90;;;;;;5042697;28;20036;-77
2023/03/03 08:47:55;;;;;;;11.85;7.03;;;0.10;99.90;;;;;;5064055;28;20048;-77
2023/03/03 08:50:20;;;;;;;15.35;7.63;;;0.50;99.90;;;;;;5066684;28;20067;-77
2023/03/03 08:52:46;;;;;;;16.08;7.75;;;0.20;99.90;;;;;;5043804;28;20588;-77
2023/03/03 08:55:12;;;;;;;18.95;8.73;;;0.20;99.90;;;;;;5037552;28;20130;-78
2023/03/03 08:57:39;;;;;;;14.73;7.72;;;0.20;99.90;;;;;;5072006;28;20051;-78
2023/03/03 09:00:12;;;;;;;16.80;7.78;;;0.50;99.90;;;;;;5023867;28;20155;-78
2023/03/03 09:02:38;;;;;;;14.52;7.45;;;0.30;99.90;;;;;;5043681;28;20145;-78
2023/03/03 09:05:04;;;;;;;16.73;7.22;;;0.50;99.90;;;;;;5034464;28;20049;-78
2023/03/03 09:07:31;;;;;;;17.60;8.27;;;0.50;99.90;;;;;;5053132;28;20755;-78
2023/03/03 09:09:57;;;;;;;14.52;8.45;;;0.50;99.90;;;;;;5058959;28;20128;-78
2023/03/03 09:12:28;;;;;;;13.98;7.75;;;0.60;99.90;;;;;;5040982;28;20037;-79
2023/03/03 09:15:21;;;;;;;15.32;8.25;;;0.80;99.90;;;;;;5059910;28;20063;-78
2023/03/03 09:17:48;;;;;;;17.17;8.40;;;0.80;99.90;;;;;;5012728;28;20087;-78
2023/03/03 09:20:17;;;;;;;14.20;7.22;;;1.10;99.90;;;;;;5048269;28;20039;-78
2023/03/03 09:22:44;;;;;;;17.90;8.10;;;1.00;99.90;;;;;;5033306;28;20091;-78
2023/03/03 09:25:35;;;;;;;15.38;7.93;;;1.00;99.90;;;;;;5049311;28;20071;-78
2023/03/03 09:28:02;;;;;;;16.40;8.20;;;1.40;99.90;;;;;;5034202;28;20047;-78
2023/03/03 09:30:38;;;;;;;20.35;9.52;;;1.30;99.90;;;;;;5031736;28;20052;-78
2023/03/03 09:33:20;;;;;;;18.65;9.68;;;1.40;99.90;;;;;;5057650;28;20051;-78
2023/03/03 09:35:47;;;;;;;16.50;9.32;;;1.60;99.90;;;;;;5056890;28;20051;-78
2023/03/03 09:38:18;;;;;;;17.85;8.48;;;1.70;99.90;;;;;;5025150;28;20078;-78
2023/03/03 09:40:47;;;;;;;;;;;1.70;99.90;;;;;;5048066;28;20120;-78
2023/03/03 09:43:45;;;;;;;16.15;8.13;;;1.80;99.90;;;;;;5038576;28;19924;-77
2023/03/03 09:46:42;;;;;;;19.63;8.63;;;1.90;99.90;;;;;;5021690;28;20056;-77
2023/03/03 09:49:22;;;;;;;15.00;7.85;;;2.00;99.90;;;;;;5053577;28;20044;-77
2023/03/03 09:52:12;;;;;;;18.17;9.32;;;2.10;99.90;;;;;;5037081;28;20103;-76
2023/03/03 09:54:57;;;;;;;21.85;9.98;;;2.20;99.90;;;;;;5057112;28;20043;-76
2023/03/03 09:57:55;;;;;;;16.58;8.73;;;2.40;99.90;;;;;;5045533;28;20052;-77
2023/03/03 10:00:33;;;;;;;14.80;8.10;;;2.60;99.90;;;;;;5060341;28;20674;-77
2023/03/03 10:03:14;;;;;;;18.60;8.98;;;2.60;99.90;;;;;;5038336;28;20509;-77
2023/03/03 10:05:54;;;;;;;18.63;8.57;;;2.70;99.90;;;;;;5050388;28;20056;-77
2023/03/03 10:09:06;;;;;;;15.18;7.05;;;2.90;99.90;;;;;;5056929;28;20131;-77
2023/03/03 10:11:50;;;;;;;13.55;7.25;;;3.00;99.90;;;;;;5054375;28;20048;-77
2023/03/03 10:14:27;;;;;;;16.75;7.93;;;3.00;99.90;;;;;;5058638;28;20430;-76
2023/03/03 10:17:08;;;;;;;13.70;7.55;;;3.10;99.90;;;;;;5035197;28;20043;-77
2023/03/03 10:19:40;;;;;;;13.95;7.55;;;3.10;99.90;;;;;;5061201;28;20143;-77
2023/03/03 10:22:42;;;;;;;15.98;7.85;;;3.20;99.90;;;;;;5045263;28;20425;-77
2023/03/03 10:25:35;;;;;;;14.95;7.07;;;3.40;99.90;;;;;;5060971;28;20537;-76
2023/03/03 10:28:29;;;;;;;12.57;6.05;;;3.60;99.90;;;;;;5057324;28;20044;-77
2023/03/03 10:31:10;;;;;;;8.23;4.25;;;3.70;99.90;;;;;;5056973;28;20784;-77
2023/03/03 10:33:56;;;;;;;12.07;3.13;;;3.80;99.90;;;;;;5046565;28;20052;-76
2023/03/03 10:36:33;;;;;;;5.78;1.45;;;4.00;99.90;;;;;;5035179;28;20376;-76
2023/03/03 10:39:29;;;;;;;6.40;1.02;;;4.20;99.90;;;;;;5051542;28;20480;-76
2023/03/03 10:42:08;;;;;;;7.30;1.73;;;4.30;99.90;;;;;;5030032;28;20045;-77
2023/03/03 10:45:03;;;;;;;3.85;1.02;;;4.50;99.90;;;;;;5057110;28;20076;-76
2023/03/03 10:48:14;;;;;;;5.53;0.90;;;4.40;99.90;;;;;;5058901;28;20965;-76
2023/03/03 10:51:21;;;;;;;3.25;0.93;;;4.50;99.90;;;;;;5041682;28;20048;-76
2023/03/03 10:54:01;;;;;;;4.85;1.10;;;4.60;99.90;;;;;;4966730;28;20198;-76
2023/03/03 10:57:02;;;;;;;5.00;1.10;;;4.60;99.90;;;;;;4987417;28;20065;-76
2023/03/03 10:59:52;;;;;;;16.85;1.90;;;4.70;99.90;;;;;;5064304;28;20055;-76
2023/03/03 11:02:26;;;;;;;5.07;1.00;;;4.80;99.90;;;;;;5043820;28;20063;-75
2023/03/03 11:05:27;;;;;;;5.15;0.88;;;4.90;99.90;;;;;;5057739;28;20129;-75
2023/03/03 11:08:18;;;;;;;3.78;0.85;;;4.90;99.90;;;;;;5038583;28;20394;-75
2023/03/03 11:11:08;;;;;;;5.05;0.90;;;5.00;99.90;;;;;;5054828;28;20047;-76
2023/03/03 11:13:36;;;;;;;6.07;0.93;;;5.10;99.90;;;;;;5040964;28;20113;-76
2023/03/03 11:16:05;;;;;;;4.05;0.80;;;5.10;99.90;;;;;;5040138;28;20052;-75
2023/03/03 11:19:05;;;;;;;5.85;0.85;;;5.20;99.90;;;;;;5026030;28;20036;-75
2023/03/03 11:21:44;;;;;;;7.13;1.10;;;5.20;99.90;;;;;;5060622;28;20120;-76
2023/03/03 11:24:13;;;;;;;3.05;0.80;;;5.20;99.90;;;;;;5042064;28;20052;-75
2023/03/03 11:27:00;;;;;;;5.07;1.02;;;5.20;99.90;;;;;;5040433;28;20059;-76
2023/03/03 11:29:52;;;;;;;4.35;0.88;;;5.20;99.90;;;;;;5035414;28;20041;-75
2023/03/03 11:32:21;;;;;;;3.33;0.80;;;5.30;99.90;;;;;;5051650;28;20098;-75
2023/03/03 11:34:50;;;;;;;3.47;0.90;;;5.30;99.90;;;;;;5048951;28;20048;-75
2023/03/03 11:37:22;;;;;;;7.35;1.05;;;5.40;99.90;;;;;;5059955;28;20032;-76
2023/03/03 11:39:52;;;;;;;7.05;1.13;;;5.30;99.90;;;;;;5044916;28;20569;-76
2023/03/03 11:42:25;;;;;;;5.60;0.70;;;5.60;99.90;;;;;;5044039;28;20063;-76
2023/03/03 11:45:20;;;;;;;5.78;0.98;;;5.50;99.90;;;;;;5025485;28;20049;-75
2023/03/03 11:47:52;;;;;;;7.95;1.60;;;5.50;99.90;;;;;;5040667;28;20070;-76
2023/03/03 11:50:24;;;;;;;5.47;0.80;;;5.50;99.90;;;;;;5056154;28;20171;-76
2023/03/03 11:53:17;;;;;;;8.23;1.00;;;5.70;99.90;;;;;;5058434;28;20124;-75
2023/03/03 11:55:48;;;;;;;7.97;1.13;;;5.70;99.90;;;;;;5061221;28;20110;-78
2023/03/03 11:58:29;;;;;;;8.60;1.15;;;5.60;99.90;;;;;;5052454;28;20044;-76
2023/03/03 12:01:14;;;;;;;;;;;5.70;99.90;;;;;;5036459;28;20507;-76
2023/03/03 12:03:56;;;;;;;6.15;1.20;;;5.70;99.90;;;;;;5031945;28;20429;-77
2023/03/03 12:06:37;;;;;;;5.93;1.08;;;5.70;99.90;;;;;;5054791;28;20489;-76
2023/03/03 12:09:12;;;;;;;6.65;0.90;;;5.80;99.90;;;;;;5045195;28;21571;-76
2023/03/03 12:11:45;;;;;;;7.75;0.90;;;5.80;99.90;;;;;;5041696;28;20040;-76
2023/03/03 12:14:48;;;;;;;7.30;1.33;;;5.80;99.90;;;;;;5060677;28;20043;-77
2023/03/03 12:17:25;;;;;;;5.28;1.05;;;5.90;99.90;;;;;;5063121;28;20037;-76
2023/03/03 12:20:06;;;;;;;4.97;0.95;;;6.00;99.90;;;;;;5043959;28;20060;-76
2023/03/03 12:22:51;;;;;;;10.10;1.33;;;6.10;99.90;;;;;;5050964;28;20129;-76
2023/03/03 12:25:44;;;;;;;9.52;1.02;;;6.10;99.90;;;;;;5053153;28;20051;-76
2023/03/03 12:28:18;;;;;;;10.77;1.65;;;6.20;99.90;;;;;;5048788;28;20052;-76
2023/03/03 12:31:08;;;;;;;6.65;0.95;;;6.20;99.90;;;;;;5070718;28;20123;-76
2023/03/03 12:33:57;;;;;;;11.13;1.20;;;6.20;99.90;;;;;;5043026;28;20060;-75
2023/03/03 12:36:25;;;;;;;9.23;1.17;;;6.20;99.90;;;;;;5017689;28;20052;-76
2023/03/03 12:39:00;;;;;;;4.80;1.00;;;6.30;99.90;;;;;;5041498;28;20056;-76
2023/03/03 12:41:41;;;;;;;8.65;1.50;;;6.30;99.90;;;;;;5036787;28;20688;-76
2023/03/03 12:44:35;;;;;;;9.63;1.23;;;6.30;99.90;;;;;;5037782;28;20125;-76
2023/03/03 12:47:12;;;;;;;8.93;1.17;;;6.40;99.90;;;;;;5055231;28;20288;-75
2023/03/03 12:49:53;;;;;;;14.93;1.58;;;6.40;99.90;;;;;;5039948;28;20043;-76
2023/03/03 12:52:41;;;;;;;8.63;1.30;;;6.50;99.90;;;;;;5037892;28;20048;-76
2023/03/03 12:55:34;;;;;;;9.52;1.80;;;6.50;99.90;;;;;;5035806;28;20101;-75
2023/03/03 12:58:12;;;;;;;5.82;1.40;;;6.50;99.90;;;;;;5054102;28;20436;-76
2023/03/03 13:01:04;;;;;;;11.55;1.65;;;6.50;99.90;;;;;;5021867;28;20067;-76
2023/03/03 13:03:48;;;;;;;10.32;1.40;;;6.60;99.90;;;;;;5012341;28;20095;-75
2023/03/03 13:06:40;;;;;;;11.35;1.33;;;6.60;99.90;;;;;;5026279;28;20047;-77
2023/03/03 13:09:29;;;;;;;14.77;1.98;;;6.60;99.90;;;;;;5056639;28;20043;-77
2023/03/03 13:12:04;;;;;;;8.85;1.20;;;6.70;99.90;;;;;;5030187;28;20079;-77
2023/03/03 13:14:48;;;;;;;16.48;2.15;;;6.60;99.90;;;;;;5040931;28;20041;-77
2023/03/03 13:17:29;;;;;;;11.85;1.63;;;6.60;99.90;;;;;;5060809;28;20063;-77